Time;durP1;ratioP1;P1;durP2;ratioP2;P2;SDS_P1;SDS_P2;PMS_P1;PMS_P2;Temp;Humidity;BMP_temperature;BMP_pressure;BME280_temperature;BME280_humidity;BME280_pressure;Samples;Min_cycle;Max_cycle;Signal;HPM_P1;HPM_P2
2023/05/24 00:02:12;;;;;;;25.80;4.50;;;;;;;9.26;73.91;101552.44;5069947;28;20048;-58
2023/05/24 00:04:40;;;;;;;14.82;3.45;;;;;;;9.22;73.51;101552.56;5054795;28;20084;-59
2023/05/24 00:07:07;;;;;;;23.58;5.32;;;;;;;9.21;74.10;101556.97;5070419;28;20088;-58
2023/05/24 00:09:34;;;;;;;20.85;4.43;;;;;;;9.31;73.45;101550.53;5073392;28;20048;-60
2023/05/24 00:12:01;;;;;;;21.17;4.07;;;;;;;9.30;72.67;101554.09;5062266;28;20048;-58
2023/05/24 00:14:28;;;;;;;11.07;4.00;;;;;;;9.29;73.44;101552.34;5054248;28;20048;-58
2023/05/24 00:16:54;;;;;;;14.68;4.75;;;;;;;9.32;72.83;101557.53;5054978;28;20091;-58
2023/05/24 00:19:21;;;;;;;12.95;4.25;;;;;;;9.36;73.22;101559.16;5064661;28;20415;-58
2023/05/24 00:21:48;;;;;;;16.27;3.90;;;;;;;9.33;72.04;101559.28;5065722;28;20059;-58
2023/05/24 00:24:16;;;;;;;20.35;4.00;;;;;;;9.36;72.66;101560.94;5060075;28;20065;-59
2023/05/24 00:26:43;;;;;;;27.17;4.38;;;;;;;9.40;72.36;101557.34;5063218;28;20458;-58
2023/05/24 00:29:10;;;;;;;15.82;4.38;;;;;;;9.37;71.75;101563.56;5064913;28;20091;-59
2023/05/24 00:31:36;;;;;;;16.15;4.13;;;;;;;9.34;72.42;101566.28;5054524;28;20131;-59
2023/05/24 00:34:03;;;;;;;12.93;3.90;;;;;;;9.37;72.36;101570.63;5054790;28;20126;-58
2023/05/24 00:36:29;;;;;;;18.55;3.78;;;;;;;9.40;71.62;101564.38;5056616;28;20110;-60
2023/05/24 00:38:56;;;;;;;27.02;4.63;;;;;;;9.36;72.11;101559.16;5054216;28;20060;-58
2023/05/24 00:41:23;;;;;;;20.70;4.70;;;;;;;9.34;72.25;101555.72;5054862;28;20480;-58
2023/05/24 00:43:49;;;;;;;17.77;3.80;;;;;;;9.42;72.30;101552.03;5069181;28;20044;-58
2023/05/24 00:46:21;;;;;;;18.77;4.00;;;;;;;9.33;72.22;101542.56;5074708;28;20140;-60
2023/05/24 00:48:49;;;;;;;20.38;5.40;;;;;;;9.27;72.35;101548.91;5073406;28;20406;-58
2023/05/24 00:51:15;;;;;;;27.20;4.65;;;;;;;9.21;71.87;101548.19;5062118;28;20049;-58
2023/05/24 00:53:47;;;;;;;22.60;4.60;;;;;;;9.21;72.64;101556.97;5054600;28;20153;-59
2023/05/24 00:56:15;;;;;;;21.35;3.83;;;;;;;9.24;72.58;101564.81;5068744;28;20384;-59
2023/05/24 00:58:42;;;;;;;17.00;4.75;;;;;;;9.18;72.22;101554.41;5060302;28;20076;-59
2023/05/24 01:01:09;;;;;;;14.98;4.15;;;;;;;9.05;72.77;101559.13;5061482;28;20049;-59
2023/05/24 01:03:35;;;;;;;18.25;3.78;;;;;;;9.04;72.72;101562.72;5055525;28;20053;-61
2023/05/24 01:06:05;;;;;;;21.67;4.32;;;;;;;9.10;73.01;101572.22;5054143;28;20055;-60
2023/05/24 01:08:50;;;;;;;13.75;3.65;;;;;;;9.05;73.07;101568.84;5062338;28;20354;-61
2023/05/24 01:11:16;;;;;;;15.35;4.03;;;;;;;9.05;72.13;101566.19;5072508;28;20483;-59
2023/05/24 01:13:52;;;;;;;21.05;3.97;;;;;;;9.09;72.89;101560.81;5054761;28;20056;-59
2023/05/24 01:16:24;;;;;;;26.05;5.85;;;;;;;9.12;72.64;101565.13;5064491;28;20144;-59
2023/05/24 01:19:10;;;;;;;21.15;4.68;;;;;;;9.15;72.21;101565.94;5055959;28;20044;-59
2023/05/24 01:21:58;;;;;;;10.65;3.42;;;;;;;9.13;72.53;101566.84;5054815;28;20051;-58
2023/05/24 01:24:43;;;;;;;23.52;5.57;;;;;;;9.23;72.31;101563.06;5060505;28;20472;-59
2023/05/24 01:27:11;;;;;;;34.92;5.45;;;;;;;9.23;72.37;101570.97;5061476;28;20052;-58
2023/05/24 01:29:39;;;;;;;20.15;4.32;;;;;;;9.21;72.80;101567.53;5053952;28;20079;-59
2023/05/24 01:32:06;;;;;;;24.10;4.30;;;;;;;9.26;72.37;101568.25;5060804;28;20459;-58
2023/05/24 01:34:32;;;;;;;16.52;3.92;;;;;;;9.26;72.17;101578.81;5062332;28;20052;-59
2023/05/24 01:36:59;;;;;;;19.20;4.85;;;;;;;9.26;71.77;101568.25;5062228;28;20140;-58
2023/05/24 01:39:28;;;;;;;20.25;3.30;;;;;;;9.30;71.92;101569.91;5062263;28;20127;-58
2023/05/24 01:42:07;;;;;;;26.80;5.28;;;;;;;9.33;71.42;101569.84;5059345;28;20140;-58
2023/05/24 01:44:40;;;;;;;12.82;3.30;;;;;;;9.37;71.07;101560.91;5053636;28;20067;-58
2023/05/24 01:47:19;;;;;;;18.45;3.33;;;;;;;9.37;71.51;101553.00;5053588;28;20179;-58
2023/05/24 01:49:52;;;;;;;21.85;3.47;;;;;;;9.18;71.74;101564.97;5056084;28;20049;-58
2023/05/24 01:52:22;;;;;;;19.35;4.13;;;;;;;9.17;71.62;101566.75;5069578;28;20128;-58
2023/05/24 01:54:52;;;;;;;17.88;3.97;;;;;;;9.10;71.63;101561.66;5070563;28;20056;-59
2023/05/24 01:57:20;;;;;;;16.05;3.58;;;;;;;9.18;72.35;101557.03;5058752;28;20063;-58
2023/05/24 01:59:47;;;;;;;17.20;4.63;;;;;;;9.22;71.47;101561.34;5058688;28;20053;-58
2023/05/24 02:02:13;;;;;;;21.08;4.60;;;;;;;9.28;71.38;101566.44;5054560;28;20065;-59
2023/05/24 02:04:40;;;;;;;22.27;5.97;;;;;;;9.21;71.13;101570.16;5057573;28;20048;-59
2023/05/24 02:07:06;;;;;;;21.25;4.47;;;;;;;9.26;71.32;101562.13;5059453;28;20052;-58
2023/05/24 02:09:33;;;;;;;19.45;5.50;;;;;;;9.28;70.85;101571.72;5061985;28;20049;-58
2023/05/24 02:12:00;;;;;;;22.88;4.00;;;;;;;9.21;70.45;101569.31;5051602;28;20056;-58
2023/05/24 02:14:26;;;;;;;17.92;4.63;;;;;;;9.24;70.48;101563.94;5062535;28;20080;-58
2023/05/24 02:16:57;;;;;;;17.65;4.53;;;;;;;9.17;70.07;101558.84;5060182;28;20057;-58
2023/05/24 02:19:24;;;;;;;27.30;5.32;;;;;;;9.30;70.66;101562.00;5053337;28;20055;-58
2023/05/24 02:21:51;;;;;;;20.98;5.22;;;;;;;9.30;70.14;101564.66;5053053;28;20114;-58
2023/05/24 02:24:18;;;;;;;22.20;4.97;;;;;;;9.29;70.07;101572.59;5059443;28;20069;-58
2023/05/24 02:26:44;;;;;;;23.00;4.63;;;;;;;9.26;69.52;101568.25;5055691;28;20126;-59
2023/05/24 02:29:11;;;;;;;16.58;4.78;;;;;;;9.29;68.81;101559.41;5071324;28;20135;-58
2023/05/24 02:31:38;;;;;;;16.52;3.95;;;;;;;9.29;69.70;101568.19;5064043;28;20049;-58
2023/05/24 02:34:05;;;;;;;14.68;4.60;;;;;;;9.29;69.38;101560.25;5055544;28;20075;-58
2023/05/24 02:36:33;;;;;;;19.10;3.80;;;;;;;9.28;69.63;101561.16;5054682;28;20131;-58
2023/05/24 02:39:00;;;;;;;25.63;4.97;;;;;;;9.32;68.73;101572.50;5075475;28;20072;-60
2023/05/24 02:41:26;;;;;;;23.80;4.55;;;;;;;9.31;68.65;101566.34;5067822;28;20416;-58
2023/05/24 02:43:53;;;;;;;25.92;4.72;;;;;;;9.25;68.53;101561.28;5055279;28;20045;-60
2023/05/24 02:46:19;;;;;;;27.33;5.35;;;;;;;9.18;68.44;101565.81;5055467;28;20049;-58
2023/05/24 02:48:48;;;;;;;22.17;4.15;;;;;;;9.31;67.75;101565.50;5057868;28;20048;-58
2023/05/24 02:51:15;;;;;;;20.02;4.47;;;;;;;9.16;67.54;101558.88;5061332;28;20127;-58
2023/05/24 02:53:42;;;;;;;13.52;3.47;;;;;;;9.14;67.77;101558.06;5051017;28;20046;-58
2023/05/24 02:56:08;;;;;;;24.70;3.70;;;;;;;9.13;68.27;101562.44;5055562;28;20132;-58
2023/05/24 02:58:39;;;;;;;25.05;4.72;;;;;;;9.13;67.63;101566.84;5054737;28;20049;-59
2023/05/24 03:01:07;;;;;;;19.70;4.88;;;;;;;9.03;67.79;101555.69;5061236;28;20080;-59
2023/05/24 03:03:34;;;;;;;18.60;4.30;;;;;;;9.08;67.61;101574.03;5057705;28;20131;-58
2023/05/24 03:06:00;;;;;;;22.58;4.50;;;;;;;9.01;67.86;101562.78;5051450;28;20054;-60
2023/05/24 03:08:27;;;;;;;22.15;4.60;;;;;;;9.03;67.91;101565.38;5054869;28;20519;-59
2023/05/24 03:10:53;;;;;;;22.15;6.40;;;;;;;9.10;67.97;101569.56;5070666;28;20058;-58
2023/05/24 03:13:20;;;;;;;16.70;4.70;;;;;;;8.87;68.58;101565.75;5063208;28;20049;-59
2023/05/24 03:15:46;;;;;;;22.67;5.32;;;;;;;8.94;68.85;101572.63;5051739;28;20080;-57
2023/05/24 03:18:13;;;;;;;26.08;4.90;;;;;;;8.96;68.71;101576.09;5071363;28;20059;-57
2023/05/24 03:20:40;;;;;;;21.38;4.55;;;;;;;8.97;68.68;101575.19;5052928;28;20063;-59
2023/05/24 03:23:08;;;;;;;16.05;5.45;;;;;;;8.97;68.68;101572.56;5070957;28;20076;-58
2023/05/24 03:25:35;;;;;;;15.60;3.90;;;;;;;8.91;68.64;101567.44;5053072;28;20061;-58
2023/05/24 03:28:01;;;;;;;28.13;5.63;;;;;;;9.05;68.18;101574.09;5051264;28;20055;-58
2023/05/24 03:30:28;;;;;;;25.33;4.45;;;;;;;9.07;68.88;101578.44;5052098;28;20172;-60
2023/05/24 03:32:54;;;;;;;18.02;5.35;;;;;;;9.07;68.63;101583.72;5052609;28;20055;-58
2023/05/24 03:35:21;;;;;;;15.70;4.45;;;;;;;8.94;68.31;101575.25;5059379;28;20475;-58
2023/05/24 03:37:48;;;;;;;15.88;4.53;;;;;;;8.96;68.13;101576.09;5074345;28;20139;-58
2023/05/24 03:40:14;;;;;;;26.05;5.18;;;;;;;8.85;68.51;101578.13;5070025;28;20056;-58
2023/05/24 03:42:41;;;;;;;23.95;5.03;;;;;;;8.93;68.46;101580.56;5072940;28;20091;-59
2023/05/24 03:45:08;;;;;;;22.55;4.85;;;;;;;8.91;68.83;101588.53;5062482;28;20521;-58
2023/05/24 03:47:34;;;;;;;22.42;4.82;;;;;;;9.02;68.21;101596.13;5055704;28;20468;-59
2023/05/24 03:50:01;;;;;;;27.30;4.97;;;;;;;9.08;68.64;101595.13;5070717;28;20053;-58
2023/05/24 03:52:28;;;;;;;22.58;5.35;;;;;;;9.08;68.52;101595.13;5067960;28;20049;-60
2023/05/24 03:54:54;;;;;;;17.52;4.40;;;;;;;9.07;68.56;101590.75;5064104;28;20056;-58
2023/05/24 03:57:21;;;;;;;16.48;4.78;;;;;;;8.99;68.72;101586.56;5066403;28;20127;-59
2023/05/24 03:59:47;;;;;;;21.20;4.80;;;;;;;8.98;68.41;101582.16;5062755;28;20114;-58
2023/05/24 04:02:14;;;;;;;27.50;5.38;;;;;;;8.94;68.44;101595.47;5055918;28;20409;-58
2023/05/24 04:04:41;;;;;;;31.98;5.25;;;;;;;9.06;68.14;101589.03;5058328;28;20458;-58
2023/05/24 04:07:10;;;;;;;18.88;4.65;;;;;;;9.03;67.76;101597.03;5054535;28;20049;-58
2023/05/24 04:09:37;;;;;;;28.42;5.43;;;;;;;9.10;67.68;101593.31;5060529;28;20051;-58
2023/05/24 04:12:03;;;;;;;25.85;5.10;;;;;;;9.14;68.32;101600.25;5070384;28;20059;-59
2023/05/24 04:14:30;;;;;;;21.85;4.68;;;;;;;9.01;67.68;101594.44;5061410;28;20481;-59
2023/05/24 04:16:57;;;;;;;23.02;4.20;;;;;;;9.05;67.31;101595.22;5067161;28;20163;-58
2023/05/24 04:19:24;;;;;;;24.58;4.95;;;;;;;9.06;67.06;101599.59;5055549;28;20079;-59
2023/05/24 04:21:50;;;;;;;25.50;5.57;;;;;;;9.00;67.71;101604.09;5062887;28;20479;-58
2023/05/24 04:24:17;;;;;;;22.33;5.25;;;;;;;9.00;67.46;101604.09;5065056;28;20048;-59
2023/05/24 04:26:43;;;;;;;31.98;5.60;;;;;;;9.11;67.44;101601.19;5060879;28;20717;-58
2023/05/24 04:29:10;;;;;;;22.60;5.00;;;;;;;9.05;67.04;101603.13;5064996;28;20051;-59
2023/05/24 04:31:36;;;;;;;21.67;5.60;;;;;;;8.99;66.71;101604.13;5059464;28;20072;-58
2023/05/24 04:34:06;;;;;;;18.58;4.75;;;;;;;8.86;66.68;101611.50;5062903;28;20045;-59
2023/05/24 04:36:34;;;;;;;27.80;5.13;;;;;;;8.97;66.77;101620.00;5065855;28;20047;-59
2023/05/24 04:39:03;;;;;;;20.13;5.00;;;;;;;8.95;66.15;101611.25;5077661;28;20071;-58
2023/05/24 04:41:31;;;;;;;16.42;5.30;;;;;;;8.95;66.22;101611.25;5071342;28;20044;-58
2023/05/24 04:44:00;;;;;;;21.90;5.03;;;;;;;9.05;65.94;101616.31;5056688;28;20057;-58
2023/05/24 04:46:27;;;;;;;27.63;5.88;;;;;;;8.98;65.84;101613.81;5053730;28;20139;-58
2023/05/24 04:48:53;;;;;;;22.73;5.47;;;;;;;8.94;66.43;101620.09;5061767;28;20570;-58
2023/05/24 04:51:21;;;;;;;33.35;6.25;;;;;;;9.04;67.08;101625.09;5062003;28;20461;-58
2023/05/24 04:53:47;;;;;;;28.92;5.53;;;;;;;8.92;66.54;101627.16;5054459;28;20122;-59
2023/05/24 04:56:15;;;;;;;28.67;4.63;;;;;;;8.85;67.19;101630.84;5054277;28;20131;-58
2023/05/24 04:58:42;;;;;;;28.98;5.43;;;;;;;8.88;67.48;101636.06;5072095;28;20048;-58
2023/05/24 05:01:08;;;;;;;29.70;6.63;;;;;;;8.87;67.79;101623.75;5057799;28;20064;-59
2023/05/24 05:03:35;;;;;;;32.40;6.18;;;;;;;9.04;67.40;101640.94;5070195;28;20131;-58
2023/05/24 05:06:02;;;;;;;25.10;5.80;;;;;;;8.93;67.69;101646.50;5063635;28;20087;-62
2023/05/24 05:08:29;;;;;;;19.70;5.40;;;;;;;9.00;67.86;101646.28;5053997;28;20051;-58
2023/05/24 05:10:56;;;;;;;29.38;5.35;;;;;;;9.00;67.91;101646.28;5059822;28;20049;-58
2023/05/24 05:13:23;;;;;;;24.90;6.10;;;;;;;8.87;68.12;101639.59;5057629;28;20776;-58
2023/05/24 05:15:49;;;;;;;29.13;4.50;;;;;;;8.64;69.09;101643.63;5067455;28;20048;-58
2023/05/24 05:18:16;;;;;;;28.95;6.30;;;;;;;8.85;68.81;101648.44;5068824;28;20060;-58
2023/05/24 05:20:42;;;;;;;29.60;6.43;;;;;;;8.66;69.94;101648.88;5060843;28;20098;-58
2023/05/24 05:23:09;;;;;;;26.20;6.72;;;;;;;8.72;69.58;101655.78;5076632;28;20084;-58
2023/05/24 05:25:36;;;;;;;30.40;6.03;;;;;;;8.81;69.30;101656.44;5059372;28;20076;-58
2023/05/24 05:28:02;;;;;;;29.48;6.22;;;;;;;8.73;69.96;101657.50;5058574;28;20239;-58
2023/05/24 05:30:29;;;;;;;27.35;7.35;;;;;;;8.90;69.91;101660.59;5064850;28;20045;-58
2023/05/24 05:32:55;;;;;;;26.13;5.50;;;;;;;8.69;70.05;101663.75;5054064;28;20049;-58
2023/05/24 05:35:22;;;;;;;43.15;5.63;;;;;;;8.74;70.25;101656.59;5061292;28;20079;-59
2023/05/24 05:37:48;;;;;;;26.05;5.43;;;;;;;8.82;70.35;101668.69;5070669;28;20139;-58
2023/05/24 05:40:15;;;;;;;23.08;4.95;;;;;;;8.89;70.20;101660.63;5057423;28;20053;-58
2023/05/24 05:42:42;;;;;;;41.85;7.15;;;;;;;8.81;70.28;101674.00;5053965;28;20067;-59
2023/05/24 05:45:09;;;;;;;30.35;4.78;;;;;;;9.04;69.71;101667.31;5061353;28;20126;-59
2023/05/24 05:47:35;;;;;;;33.65;8.48;;;;;;;9.15;69.11;101670.53;5071786;28;20115;-59
2023/05/24 05:50:02;;;;;;;27.05;5.32;;;;;;;9.23;69.05;101673.84;5060216;28;20055;-58
2023/05/24 05:52:28;;;;;;;24.85;5.50;;;;;;;8.84;69.53;101676.56;5053395;28;20049;-58
2023/05/24 05:54:55;;;;;;;31.73;6.38;;;;;;;9.11;70.08;101679.47;5052802;28;20049;-58
2023/05/24 05:57:23;;;;;;;43.30;7.30;;;;;;;9.07;70.44;101669.88;5052207;28;20048;-58
2023/05/24 05:59:52;;;;;;;41.78;7.63;;;;;;;9.33;69.87;101688.56;5058199;28;20132;-59
2023/05/24 06:02:21;;;;;;;36.78;6.90;;;;;;;9.45;68.73;101689.13;5069127;28;20474;-58
2023/05/24 06:04:49;;;;;;;29.13;6.43;;;;;;;9.40;69.81;101696.31;5052889;28;20048;-58
2023/05/24 06:07:15;;;;;;;28.02;6.57;;;;;;;9.43;69.59;101697.13;5053147;28;20657;-58
2023/05/24 06:09:42;;;;;;;39.33;6.00;;;;;;;9.29;69.48;101694.81;5052258;28;20060;-58
2023/05/24 06:12:08;;;;;;;26.92;6.15;;;;;;;8.97;70.17;101693.84;5051621;28;20160;-58
2023/05/24 06:14:37;;;;;;;25.92;6.13;;;;;;;9.27;69.65;101696.63;5059389;28;20079;-58
2023/05/24 06:17:06;;;;;;;39.70;7.35;;;;;;;9.40;69.56;101704.22;5057092;28;20450;-58
2023/05/24 06:19:33;;;;;;;23.15;6.90;;;;;;;9.25;69.75;101703.72;5057750;28;20063;-59
2023/05/24 06:22:00;;;;;;;26.83;7.05;;;;;;;9.12;70.34;101702.28;5071517;28;20420;-57
2023/05/24 06:24:27;;;;;;;34.00;7.05;;;;;;;9.28;70.05;101703.63;5073252;28;20091;-59
2023/05/24 06:26:54;;;;;;;37.45;6.13;;;;;;;9.31;70.44;101708.81;5072573;28;20044;-58
2023/05/24 06:29:21;;;;;;;31.23;7.07;;;;;;;9.41;69.75;101714.75;5073536;28;20052;-59
2023/05/24 06:31:48;;;;;;;35.80;7.13;;;;;;;9.41;69.04;101711.25;5069371;28;20555;-59
2023/05/24 06:34:17;;;;;;;22.33;7.07;;;;;;;9.31;69.96;101707.97;5072820;28;20076;-59
2023/05/24 06:36:46;;;;;;;32.50;6.22;;;;;;;9.06;70.78;101715.63;5073433;28;20503;-58
2023/05/24 06:39:14;;;;;;;29.30;7.25;;;;;;;9.26;70.55;101716.00;5065826;28;20118;-58
2023/05/24 06:41:42;;;;;;;26.98;6.03;;;;;;;9.33;70.53;101717.59;5072981;28;20182;-58
2023/05/24 06:44:08;;;;;;;33.47;6.88;;;;;;;9.18;70.93;101715.31;5073373;28;20095;-59
2023/05/24 06:46:35;;;;;;;27.67;7.60;;;;;;;9.30;70.51;101722.94;5073956;28;20074;-58
2023/05/24 06:49:02;;;;;;;34.88;6.93;;;;;;;9.09;70.65;101724.34;5067664;28;20045;-59
2023/05/24 06:51:29;;;;;;;30.10;6.85;;;;;;;9.10;71.14;101725.19;5056054;28;20053;-59
2023/05/24 06:53:56;;;;;;;35.85;8.88;;;;;;;9.04;71.18;101731.50;5056957;28;20426;-59
2023/05/24 06:56:27;;;;;;;32.67;6.78;;;;;;;8.99;71.45;101722.78;5064770;28;20132;-58
2023/05/24 06:58:54;;;;;;;38.85;7.80;;;;;;;9.12;70.91;101728.66;5053686;28;20049;-58
2023/05/24 07:01:22;;;;;;;33.13;7.00;;;;;;;9.19;70.80;101732.88;5055086;28;20045;-58
2023/05/24 07:03:48;;;;;;;37.72;7.70;;;;;;;9.13;71.46;101730.38;5054709;28;20079;-58
2023/05/24 07:06:15;;;;;;;41.80;6.28;;;;;;;9.27;70.68;101737.94;5052095;28;20056;-59
2023/05/24 07:08:42;;;;;;;31.80;7.30;;;;;;;9.15;71.11;101733.84;5052289;28;20626;-59
2023/05/24 07:11:08;;;;;;;49.95;8.15;;;;;;;9.34;70.70;101729.84;5055712;28;20156;-59
2023/05/24 07:13:35;;;;;;;37.50;8.20;;;;;;;9.40;70.50;101734.13;5056637;28;20053;-59
2023/05/24 07:16:02;;;;;;;38.90;10.18;;;;;;;9.35;70.54;101736.00;5062202;28;20056;-59
2023/05/24 07:18:29;;;;;;;35.22;6.68;;;;;;;9.52;70.63;101740.88;5078102;28;20151;-59
2023/05/24 07:20:56;;;;;;;28.67;7.45;;;;;;;9.31;70.56;101748.41;5076688;28;20411;-59
2023/05/24 07:23:22;;;;;;;29.52;6.68;;;;;;;9.34;71.08;101750.97;5075811;28;20136;-59
2023/05/24 07:25:49;;;;;;;23.33;6.93;;;;;;;9.48;69.98;101752.38;5063910;28;20049;-58
2023/05/24 07:28:18;;;;;;;29.17;7.03;;;;;;;9.21;70.57;101738.97;5056436;28;20077;-58
2023/05/24 07:30:45;;;;;;;30.23;8.27;;;;;;;9.58;70.30;101753.91;5057257;28;20049;-60
2023/05/24 07:33:12;;;;;;;28.13;8.30;;;;;;;9.41;70.52;101756.97;5075495;28;20048;-57
2023/05/24 07:35:39;;;;;;;39.92;7.32;;;;;;;9.48;70.28;101762.94;5070829;28;20397;-59
2023/05/24 07:38:06;;;;;;;33.53;7.53;;;;;;;9.70;70.23;101769.41;5056640;28;20049;-58
2023/05/24 07:40:33;;;;;;;34.35;8.05;;;;;;;9.79;70.14;101767.44;5056382;28;20095;-60
2023/05/24 07:43:00;;;;;;;30.13;6.78;;;;;;;9.89;69.50;101768.97;5055490;28;20043;-58
2023/05/24 07:45:29;;;;;;;36.50;6.50;;;;;;;10.16;68.43;101777.03;5056079;28;20056;-60
2023/05/24 07:47:56;;;;;;;33.22;6.78;;;;;;;10.06;69.20;101777.28;5078911;28;20056;-58
2023/05/24 07:50:23;;;;;;;38.45;7.55;;;;;;;10.11;68.30;101785.09;5084090;28;20052;-58
2023/05/24 07:52:50;;;;;;;36.45;7.53;;;;;;;9.62;69.46;101774.03;5064892;28;20127;-58
2023/05/24 07:55:16;;;;;;;22.65;6.68;;;;;;;9.51;70.33;101779.59;5068501;28;20088;-58
2023/05/24 07:57:43;;;;;;;29.23;5.40;;;;;;;9.61;70.14;101780.25;5064883;28;20076;-58
2023/05/24 08:00:13;;;;;;;39.10;8.27;;;;;;;10.10;68.83;101778.94;5059517;28;20065;-58
2023/05/24 08:02:41;;;;;;;33.55;8.57;;;;;;;10.13;69.21;101793.81;5070830;28;20055;-59
2023/05/24 08:05:11;;;;;;;30.42;8.25;;;;;;;9.98;68.93;101783.69;5064821;28;20052;-60
2023/05/24 08:07:39;;;;;;;24.83;7.28;;;;;;;9.91;69.34;101788.28;5060083;28;20061;-58
2023/05/24 08:10:09;;;;;;;33.03;7.35;;;;;;;10.07;68.96;101786.94;5073329;28;20052;-58
2023/05/24 08:12:35;;;;;;;30.08;6.82;;;;;;;9.92;69.35;101784.69;5082406;28;20080;-58
2023/05/24 08:15:02;;;;;;;26.58;6.15;;;;;;;10.06;68.70;101782.56;5070850;28;20045;-58
2023/05/24 08:17:30;;;;;;;34.63;8.88;;;;;;;10.24;68.24;101791.75;5057384;28;20045;-60
2023/05/24 08:19:57;;;;;;;29.15;6.38;;;;;;;10.36;66.75;101793.22;5075453;28;20063;-58
2023/05/24 08:22:23;;;;;;;26.70;6.38;;;;;;;10.16;67.95;101798.19;5057191;28;20098;-58
2023/05/24 08:24:51;;;;;;;30.98;7.78;;;;;;;10.37;67.78;101805.53;5061151;28;20084;-58
2023/05/24 08:27:17;;;;;;;28.85;6.82;;;;;;;10.37;66.91;101796.75;5074599;28;20094;-58
2023/05/24 08:29:44;;;;;;;29.75;6.90;;;;;;;10.43;66.99;101802.72;5075224;28;20088;-58
2023/05/24 08:32:11;;;;;;;29.25;7.60;;;;;;;10.54;66.88;101801.53;5071523;28;20077;-58
2023/05/24 08:34:38;;;;;;;30.38;6.05;;;;;;;10.86;66.90;101789.16;5063287;28;20040;-58
2023/05/24 08:37:04;;;;;;;27.67;6.63;;;;;;;10.53;67.40;101797.19;5080899;28;20083;-58
2023/05/24 08:39:31;;;;;;;42.63;7.97;;;;;;;10.28;67.49;101797.81;5073038;28;20048;-58
2023/05/24 08:41:59;;;;;;;36.60;8.98;;;;;;;10.20;67.68;101797.16;5073448;28;20174;-58
2023/05/24 08:44:51;;;;;;;23.63;5.63;;;;;;;10.81;66.51;101791.94;5073982;28;20127;-58
2023/05/24 08:47:21;;;;;;;25.27;5.72;;;;;;;11.08;65.94;101800.78;5057766;28;20069;-60
2023/05/24 08:49:50;;;;;;;31.75;7.00;;;;;;;10.84;65.30;101798.00;5064267;28;20045;-58
2023/05/24 08:52:19;;;;;;;25.95;5.90;;;;;;;10.94;65.05;101803.03;5055417;28;20477;-58
2023/05/24 08:54:48;;;;;;;28.48;5.60;;;;;;;10.87;65.11;101806.75;5060306;28;20084;-58
2023/05/24 08:57:15;;;;;;;20.77;5.70;;;;;;;11.03;64.58;101800.06;5063478;28;20128;-59
2023/05/24 08:59:42;;;;;;;20.63;6.32;;;;;;;10.54;65.37;101805.03;5064491;28;20055;-58
2023/05/24 09:02:12;;;;;;;26.05;6.63;;;;;;;10.79;65.84;101810.50;5072621;28;20049;-59
2023/05/24 09:04:40;;;;;;;19.50;5.78;;;;;;;10.72;64.29;101814.22;5062051;28;20048;-59
2023/05/24 09:07:08;;;;;;;21.42;5.60;;;;;;;11.12;64.84;101817.47;5072513;28;20106;-59
2023/05/24 09:09:36;;;;;;;33.05;7.90;;;;;;;10.77;64.95;101817.63;5069134;28;20056;-59
2023/05/24 09:12:04;;;;;;;19.90;5.25;;;;;;;10.87;65.10;101820.88;5062133;28;20132;-59
2023/05/24 09:14:31;;;;;;;21.35;5.97;;;;;;;11.15;64.26;101817.38;5068739;28;20045;-59
2023/05/24 09:16:58;;;;;;;17.23;5.18;;;;;;;11.67;64.27;101820.09;5066842;28;20049;-61
2023/05/24 09:19:26;;;;;;;21.88;5.20;;;;;;;11.67;63.11;101820.09;5058002;28;20083;-59
2023/05/24 09:21:54;;;;;;;20.15;6.45;;;;;;;12.16;61.69;101813.16;5055627;28;20073;-59
2023/05/24 09:24:22;;;;;;;20.67;5.60;;;;;;;11.73;62.68;101820.75;5054524;28;20045;-60
2023/05/24 09:26:49;;;;;;;21.33;4.95;;;;;;;11.56;63.38;101817.84;5071547;28;20431;-58
2023/05/24 09:29:21;;;;;;;14.18;4.60;;;;;;;11.48;63.66;101815.44;5060760;28;20428;-58
2023/05/24 09:31:48;;;;;;;26.10;6.18;;;;;;;11.57;62.52;101820.44;5071478;28;20052;-58
2023/05/24 09:34:18;;;;;;;20.45;5.00;;;;;;;11.30;63.14;101822.19;5063122;28;20055;-59
2023/05/24 09:36:45;;;;;;;13.93;4.32;;;;;;;11.55;63.08;101824.88;5067432;28;20045;-58
2023/05/24 09:39:12;;;;;;;24.95;5.40;;;;;;;11.68;62.47;101821.84;5066638;28;20084;-59
2023/05/24 09:41:42;;;;;;;19.63;4.97;;;;;;;11.60;61.56;101818.59;5072826;28;20488;-59
2023/05/24 09:44:12;;;;;;;19.77;4.65;;;;;;;11.47;63.00;101824.28;5060843;28;20045;-59
2023/05/24 09:46:39;;;;;;;17.45;4.45;;;;;;;11.60;63.03;101818.59;5068175;28;20082;-58
2023/05/24 09:49:06;;;;;;;21.45;4.53;;;;;;;11.27;63.45;101819.63;5074544;28;20075;-60
2023/05/24 09:51:37;;;;;;;16.88;5.18;;;;;;;11.22;63.45;101823.34;5075308;28;20051;-58
2023/05/24 09:54:05;;;;;;;17.58;4.43;;;;;;;11.37;61.75;101828.13;5074577;28;20151;-60
2023/05/24 09:56:33;;;;;;;16.30;4.45;;;;;;;11.57;61.75;101828.38;5073761;28;20425;-58
2023/05/24 09:59:07;;;;;;;20.10;3.75;;;;;;;11.46;61.42;101832.25;5071034;28;20049;-60
2023/05/24 10:01:34;;;;;;;15.32;4.63;;;;;;;11.98;60.40;101821.75;5075413;28;20496;-59
2023/05/24 10:04:05;;;;;;;18.00;4.57;;;;;;;12.39;59.38;101833.56;5062992;28;20066;-59
2023/05/24 10:06:37;;;;;;;21.00;3.95;;;;;;;12.59;58.86;101821.38;5072348;28;20063;-59
2023/05/24 10:09:05;;;;;;;27.33;4.40;;;;;;;12.53;59.56;101822.44;5068232;28;20044;-59
2023/05/24 10:11:35;;;;;;;15.98;3.83;;;;;;;12.52;57.88;101831.34;5064261;28;20465;-59
2023/05/24 10:14:04;;;;;;;;;;;;;;;12.93;55.70;101836.88;5072437;28;20044;-57
2023/05/24 10:16:31;;;;;;;15.35;4.03;;;;;;;12.57;57.62;101829.38;5065718;28;19931;-59
2023/05/24 10:18:58;;;;;;;16.85;3.60;;;;;;;11.96;60.08;101828.91;5068800;28;20048;-59
2023/05/24 10:21:28;;;;;;;16.27;5.20;;;;;;;11.75;60.22;101831.31;5070301;28;20131;-58
2023/05/24 10:23:58;;;;;;;17.20;3.88;;;;;;;11.68;60.11;101832.44;5073432;28;20056;-59
2023/05/24 10:26:30;;;;;;;13.23;4.35;;;;;;;11.57;60.44;101833.66;5070896;28;20087;-59
2023/05/24 10:29:06;;;;;;;13.70;3.65;;;;;;;11.95;60.01;101830.69;5073216;28;20163;-58
2023/05/24 10:31:39;;;;;;;12.45;3.80;;;;;;;11.86;60.42;101834.47;5070168;28;20052;-59
2023/05/24 10:34:08;;;;;;;14.30;3.65;;;;;;;12.02;59.93;101831.34;5071487;28;20052;-59
2023/05/24 10:36:36;;;;;;;16.73;4.40;;;;;;;12.07;59.70;101834.69;5060230;28;20362;-59
2023/05/24 10:39:03;;;;;;;17.90;4.45;;;;;;;12.12;59.24;101838.06;5067711;28;20072;-59
2023/05/24 10:41:38;;;;;;;11.95;3.33;;;;;;;12.29;57.03;101843.63;5065348;28;20044;-59
2023/05/24 10:44:11;;;;;;;6.32;2.53;;;;;;;12.70;56.60;101839.50;5057719;28;20159;-59
2023/05/24 10:47:02;;;;;;;18.55;4.03;;;;;;;12.39;57.71;101841.53;5073711;28;20091;-58
2023/05/24 10:49:30;;;;;;;12.18;3.60;;;;;;;12.43;57.21;101852.88;5073622;28;20040;-59
2023/05/24 10:52:07;;;;;;;8.00;2.60;;;;;;;12.37;56.78;101842.47;5073013;28;20088;-59
2023/05/24 10:54:37;;;;;;;12.70;3.22;;;;;;;12.15;57.35;101847.69;5070262;28;20540;-59
2023/05/24 10:57:08;;;;;;;10.43;3.28;;;;;;;12.00;57.81;101843.75;5073831;28;20064;-59
2023/05/24 10:59:37;;;;;;;15.27;2.83;;;;;;;12.13;57.57;101845.09;5068876;28;20075;-59
2023/05/24 11:02:14;;;;;;;7.43;2.05;;;;;;;12.86;56.92;101843.31;5062365;28;20052;-59
2023/05/24 11:04:45;;;;;;;11.15;3.38;;;;;;;13.04;55.09;101845.28;5081424;28;20045;-59
2023/05/24 11:07:14;;;;;;;12.70;2.38;;;;;;;13.42;53.82;101850.06;5053950;28;20445;-58
2023/05/24 11:09:51;;;;;;;11.07;2.65;;;;;;;13.33;53.92;101840.66;5067217;28;20616;-58
2023/05/24 11:12:22;;;;;;;5.40;2.10;;;;;;;13.36;51.78;101844.97;5068957;28;20052;-58
2023/05/24 11:14:51;;;;;;;12.40;2.67;;;;;;;12.92;53.27;101850.19;5069505;28;20089;-58
2023/05/24 11:17:20;;;;;;;5.68;2.28;;;;;;;13.15;52.34;101841.34;5052963;28;20061;-58
2023/05/24 11:19:52;;;;;;;7.70;1.95;;;;;;;13.43;52.31;101838.47;5064335;28;20048;-58
2023/05/24 11:22:21;;;;;;;11.57;2.50;;;;;;;13.14;53.50;101844.91;5071811;28;20350;-59
2023/05/24 11:24:48;;;;;;;9.95;3.42;;;;;;;13.15;54.11;101841.34;5060816;28;20110;-59
2023/05/24 11:27:16;;;;;;;12.98;3.25;;;;;;;13.64;53.23;101850.03;5072830;28;20568;-59
2023/05/24 11:29:44;;;;;;;14.05;3.30;;;;;;;13.83;52.36;101843.94;5053320;28;20132;-58